Tville, Georgia
Current Conditions -  °F | °C
As of 11:15 PM on Thursday 27 Nov 2014 (Local Time) from KTVI Reporting Station
Clear Clear  
Wind Chill: 38°   Ceiling: Unl
Heat Index: 41°   Visibility: 10mi
Dew Point: 34°   Wind: 5mph
Humidity: 76%   Direction: 330°NNW
Pressure: 30.39"   Gusts: NA
Location:  30.8297°N, 83.9811°W
Report Text: KTVI 280415Z AUTO 33004KT 10SM CLR 05/01 A3039 RMK AO2
Loading
Personal Weather Stations






























Interactive Weather Map New forecast layout! Learn more

10-Day Weather Forecast

Advertisements
Track Severe Weather on mobile